MUCU/SCU METAR and TAF weather

Enter ICAO airport designator
Station Type Date Time Source
MUCU METAR 2022/08/16 17:50 UTC NOAA

MUCU 161750Z 19007KT 140V240 9000 SCT020 31/25 Q1015


Station Type Date Time Source
MUCU Decoded METAR 2022/08/16 17:50 UTC NOAA

Santiago De Cuba, Oriente, Cuba (MUCU) 19-58N 075-51W 55M
Aug 16, 2022 - 01:50 PM EDT / 2022.08.16 1750 UTC
Wind: from the S (190 degrees) at 8 MPH (7 KT) (direction variable):0
Visibility: 5 mile(s):0
Sky conditions: partly cloudy
Temperature: 87 F (31 C)
Heat index: 97.5 F (36.4 C):1
Dew Point: 77 F (25 C)
Relative Humidity: 70%
Pressure (altimeter): 29.97 in. Hg (1015 hPa)
ob: MUCU 161750Z 19007KT 140V240 9000 SCT020 31/25 Q1015
cycle: 18

Station Type Date Time Source
MUCU TAF 2022/08/16 18:03 UTC NOAA

TAF MUCU 161700Z 1618/1718 18007KT 9000 SCT020
TEMPO 1619/1624 FEW018CB
BECMG 1701/1703 VRB03KT

Example: see airport list